Challenge du Brabant Wallon

Le Jogging À L'Hèze - Grez-Doiceau (13.50 km)

samedi 05 juin 2021

Vous pouvez trouver Le classement original sur : www.goaltiming.be
CHALLENGE DU BRABANT WALLON
LE JOGGING À L'HÈZE - GREZ-DOICEAU
DISTANCE : 13.50 km
samedi 05 juin 2021
 
Place dos NOM Team Catégorie Pl/cat temps temps/km Vitesse
01:00:00                
1 707 PAUL ROMAIN JTP BLANCS GILETS / H20-29 1 00:46:50 03:28 17.30
2 1043 GALERIN DENIS RIWA H30-39 1 00:48:35 03:36 16.68
3 209 MATTHYS ALEXIS TEAM M&M’S POWER H30-39 2 00:49:10 03:38 16.48
4 1046 DEBLANDER ROMAIN TRAKKS H20-29 2 00:49:19 03:39 16.43
5 520 GOSSIAUX RENAN TRAKKS SCOTT H30-39 3 00:50:40 03:45 15.99
6 208 MOUREAU KEVIN TEAM M&M'S POWER H30-39 4 00:51:26 03:49 15.75
7 1137 THIRY SAMUEL - H30-39 5 00:51:30 03:49 15.73
8 1024 VANDERBECK YVES JC RONVAU H50-59 1 00:52:40 03:54 15.38
9 247 DUPUIS CORENTIN RIWA H40-49 1 00:53:14 03:57 15.22
10 1118 VINCENT THIBAULT - H30-39 6 00:53:24 03:57 15.17
11 189 HEUNINCK ALEXANDRE - H30-39 7 00:54:00 04:00 15.00
12 1054 LOUIS SEBASTIEN TRIKV H40-49 2 00:54:06 04:00 14.98
13 15 BUIS QUENTIN BORN TO RUN H30-39 8 00:54:37 04:03 14.83
14 608 LAHAYE VINCENT RUNNIN'GREZ H20-29 3 00:56:12 04:10 14.42
15 772 MATHY JEAN-JACQUES JCPMF RAMILLIES H40-49 3 00:56:20 04:10 14.38
16 612 MARTINEZ DAVID RUNNIN'GREZ H40-49 4 00:56:42 04:12 14.29
17 832 VAN DONGHEN PATRICE NAC H30-39 9 00:57:02 04:13 14.21
18 3563 DEDOYARD FRANCOIS RUNNINGREZ H40-49 5 00:57:20 04:15 14.13
19 758 DENUIT DYLAN - H20-29 4 00:57:21 04:15 14.13
20 905 LOUVEAUX SEBASTIEN CS DYLE H40-49 6 00:57:36 04:16 14.07
21 351 BERNARD LOUIS NAC H50-59 2 00:57:43 04:16 14.04
22 254 RATINCKX JEAN-PHILIPPE RIWA H30-39 10 00:57:45 04:17 14.03
23 217 DERMIENS OLIVIER TEAM M&MS POWER H50-59 3 00:58:09 04:18 13.93
24 1062 KLEPPER JULIEN RIWA H30-39 11 00:58:16 04:19 13.91
25 3672 DESILLE FREDERIC - H40-49 7 00:58:16 04:19 13.91
26 586 CANION CHRISTOPHE RUNNIN’GREZ H50-59 4 00:58:17 04:19 13.90
27 243 DE MOOR AUDREY RIWA F30-39 1 00:58:21 04:19 13.89
28 265 DI VINCENZO PASCAL JAMES H50-59 5 00:58:40 04:21 13.81
29 1075 BAILLEUX ANTOINE - H40-49 8 00:58:42 04:21 13.80
30 262 CNOCQUART SEBASTIEN JTP BLANCS GILETS H40-49 9 00:58:43 04:21 13.80
31 873 DESILLE NICOLE RIWA F50-59 1 00:58:48 04:21 13.78
32 847 VAN WYNENDAELE DIMITRY JOGGANS H40-49 10 00:58:50 04:21 13.77
33 1039 DE PRA DAMIEN TRAINING 7 RIWA H40-49 11 00:59:00 04:22 13.73
34 3674 SMEYERS NICOLAS - H30-39 12 00:59:06 04:23 13.71
35 269 FLAMENT PATRICE BORN TO RUN H50-59 6 00:59:22 04:24 13.65
36 659 COLLIGNON THOMAS RUNNING TOGETHER CHA H30-39 13 00:59:25 04:24 13.64
37 1126 GENOTTE CLEMENT - H20-29 5 00:59:47 04:26 13.55
38 273 VANDERZWALMEN SABINE BORN TO RUN F40-49 1 01:00:20 04:28 13.43
39 893 BODART OLIVIER ANTILOB H50-59 7 01:00:37 04:29 13.37
40 798 VERSCHUEREN NICOLAS - H20-29 6 01:00:47 04:30 13.33
41 897 CESAR VINCENT CS DYLE H40-49 12 01:01:23 04:33 13.20
42 490 HANSEN PASCAL TEAM MARCEL H50-59 8 01:01:26 04:33 13.19
43 1098 MARLE ADRIEN - H40-49 13 01:01:45 04:34 13.12
44 3564 DELFOSSE FRANCOIS LANGOHR STAR RUNNING H40-49 14 01:02:00 04:35 13.07
45 3565 LANGOHR JULIEN - H40-49 15 01:02:03 04:36 13.06
46 1068 VINK JOHN-ALEXANDRE - H15-19 1 01:02:04 04:36 13.05
47 704 GICQUEL DONATIENNE JTP BLANCS GILETS F40-49 2 01:02:06 04:36 13.05
48 706 SIMONET PATRICK JTP BLANCS GILETS H40-49 16 01:02:06 04:36 13.05
49 225 ABS DIMITRI - H30-39 14 01:02:13 04:36 13.02
50 1127 SANDERS NICOLAS - H30-39 15 01:02:29 04:38 12.97
51 1009 VANHORICK BRUNO - H40-49 17 01:02:50 04:39 12.89
52 255 RATINCKX CHRISTOPHE RIWA H30-39 16 01:02:52 04:39 12.89
53 1091 VAN RAEMDONCK GILLES RIWA H50-59 9 01:03:05 04:40 12.84
54 1022 DELMAY ALEXIS - H20-29 7 01:03:12 04:41 12.82
55 1138 SOENENS KEVIN FURALOPERS H40-49 18 01:03:37 04:43 12.74
56 607 LAHAYE JULIEN RUNNIN'GREZ H20-29 8 01:03:58 04:44 12.67
57 279 SCHREURS SEBASTIEN GTC H40-49 19 01:04:01 04:44 12.66
58 1133 SAEGERMAN THIBAULT RIWA H15-19 2 01:04:03 04:45 12.65
59 732 VAN LIERDE JEREMY - H30-39 17 01:04:10 04:45 12.63
60 340 ANDRE OLIVIER - H50-59 10 01:04:25 04:46 12.58
61 1108 DEWANDRE THOMAS - H40-49 20 01:04:27 04:46 12.57
62 186 WALRAVENS BRUNO JE COURS A INCOURT H30-39 18 01:04:29 04:47 12.56
63 815 WERTZ NICOLAS NAC H40-49 21 01:04:31 04:47 12.56
64 120 COUTELLIER FREDERIC - H40-49 22 01:04:34 04:47 12.55
65 610 LAHAYE PHILIPPE RUNNIN'GREZ H50-59 11 01:04:35 04:47 12.55
66 485 CAUPAIN FABIAN JAMES H50-59 12 01:04:42 04:47 12.52
67 165 NOULARD OLIVIER JE COURS A INCOURT H30-39 19 01:04:47 04:48 12.51
68 1084 COMPTE MATTHIEU RIWA H40-49 23 01:04:47 04:48 12.51
69 50 LESNE DIDIER LDLV H50-59 13 01:04:56 04:49 12.48
70 512 OYARZABAL JONATHAN - H40-49 24 01:04:56 04:49 12.48
71 329 THORE MARTIN FURALOPERS H50-59 14 01:04:57 04:49 12.47
72 323 LORGE JEAN-MARC JC RONVAU H50-59 15 01:04:57 04:49 12.47
73 1125 VANDRIES ADRIEN - H20-29 9 01:05:29 04:51 12.37
74 587 CORDIER NICOLAS RUNNIN’GREZ H40-49 25 01:05:31 04:51 12.37
75 1114 VANDERMOSTEN XAVIER RUN4VILLERS H50-59 16 01:05:42 04:52 12.33
76 701 DEGEEST BASTIEN JTP BLANCS GILETS H30-39 20 01:05:45 04:52 12.32
77 3570 LEJEUNE LUDOVIC TRAINING 7 RIWA H40-49 26 01:05:52 04:53 12.30
78 196 SOSMAN EDDY NAC H50-59 17 01:05:57 04:53 12.29
79 1087 BALDARELLI FABIO CIAO ITALIA H40-49 27 01:06:43 04:56 12.14
80 766 VANDERHAEGEN SAMUEL - H40-49 28 01:07:12 04:59 12.06
81 867 SORIA LOPEZ MIGUEL RIWA H40-49 29 01:07:22 04:59 12.03
82 324 VANDERLINDEN TOM FURALOPERS H40-49 30 01:07:25 05:00 12.02
83 663 DELAERE CHRISTOPHE JAMES H50-59 18 01:07:29 05:00 12.01
84 963 STERCK ROBIN - H20-29 10 01:07:42 05:01 11.97
85 218 BAUMONT PATRICK JTP BLANCS GILETS H50-59 19 01:07:49 05:01 11.95
86 1045 DUCORNAIT EMILIE - F30-39 2 01:07:52 05:02 11.94
87 510 GALLE ANTONIN - H20-29 11 01:07:59 05:02 11.92
88 909 LANGELEZ OLIVIER CS DYLE H40-49 31 01:08:01 05:02 11.91
89 667 BELANGE LAURENT ANTILOB H40-49 32 01:08:13 05:03 11.88
90 825 MONTOISY LOUISE TRAINING 7 F20-29 1 01:08:23 05:04 11.85
91 185 WALRAVENS BENOIT JE COURS A INCOURT H30-39 21 01:08:30 05:04 11.83
92 246 DUBOIS VINCENT RIWA H50-59 20 01:08:41 05:05 11.80
93 649 BAUDUIN DIDIER NAC H50-59 21 01:08:45 05:05 11.78
94 517 OUAKLANI SAMI JTP BLANCS GILETS H40-49 33 01:08:59 05:07 11.75
95 3557 ULLENS MATHIEU - H30-39 22 01:09:02 05:07 11.74
96 342 SERRE EMMANUELLE - F40-49 3 01:09:13 05:08 11.71
97 193 MENU ERIC TOU SPORT1 H50-59 22 01:09:16 05:08 11.70
98 194 VERVLOESEM XAVIER TOUSPORT1 H50-59 23 01:09:16 05:08 11.70
99 281 PALATE FABIAN - H50-59 24 01:09:45 05:10 11.62
100 256 SAUME OLIVIER RIWA H40-49 34 01:09:55 05:11 11.59
101 244 DE PRINS JEAN-FRANCOIS RIWA H20-29 12 01:10:03 05:11 11.57
102 195 KIN LAURENCE JAMES F50-59 2 01:10:11 05:12 11.54
103 561 BERREWAERTS ETIENNE USBW H60-69 1 01:10:14 05:12 11.54
104 750 VANDEKERCKHOVE PHILIPPE TOU'SPORT1 H50-59 25 01:10:20 05:13 11.52
105 129 CHAMPAGNE JEAN-CHRISTOPHE JE COURS A INCOURT H30-39 23 01:10:21 05:13 11.52
106 513 MICHEL PATRICK - H50-59 26 01:10:35 05:14 11.48
107 693 VANDEN BOSSCHE THIERRY RUN4VILLERS H40-49 35 01:11:00 05:15 11.41
108 1124 HENRARD JEROME - H30-39 24 01:11:03 05:16 11.40
109 653 RANDALL CHRISTOPHER RUN4VILLERS H60-69 2 01:11:10 05:16 11.38
110 355 VAN POUCKE JOSÉ - H60-69 3 01:11:15 05:17 11.37
111 1076 BRIOT GAETAN - H30-39 25 01:11:24 05:17 11.35
112 14 MARCQ KARL TOU’SPORT1 H60-69 4 01:11:46 05:19 11.29
113 145 GALLE PHILIPPE JE COURS A INCOURT H60-69 5 01:11:47 05:19 11.29
114 58 DELCHARLERIE PASCAL LDLV H40-49 36 01:11:56 05:20 11.26
115 252 PIRSON FLORENCE RIWA F40-49 4 01:12:10 05:21 11.23
116 230 DELFERIERE DIDIER - H50-59 27 01:12:54 05:24 11.11
117 210 LAMBERT CHRISTOPHE RAW H50-59 28 01:12:57 05:24 11.11
118 212 PARMENTIER KARINE M'CHOU NAC NIVELLES F50-59 3 01:13:00 05:24 11.10
119 451 DEBRUYN THIERRY - H50-59 29 01:13:19 05:26 11.05
120 353 PERMENTIER DELPHINE JCPM MSG F40-49 5 01:13:20 05:26 11.05
121 3551 RUPPRECHT MICHAEL RUN TOGETHER CHASTRE H40-49 37 01:13:20 05:26 11.05
122 533 THOMAS FABRICE JTP BLANCS GILETS H50-59 30 01:13:20 05:26 11.05
123 197 ROGMANS INGRID NAC F40-49 6 01:13:27 05:26 11.03
124 68 DECLERCQ JOE CEPAL H60-69 6 01:13:34 05:27 11.01
125 597 DUMOULIN PHILIPPE RUNNIN’GREZ H50-59 31 01:13:40 05:27 11.00
126 3678 DE VISSCHER PATRICK - H50-59 32 01:13:48 05:28 10.98
127 1021 DELATTRE JULIEN - H20-29 13 01:14:01 05:29 10.95
128 1063 VERHAMME CLAIRE - F20-29 2 01:14:14 05:30 10.91
129 1093 D'ADDABBO ORONZO CIAO ITALIA H60-69 7 01:14:22 05:30 10.89
130 274 COMPERE MICHEL JAMES H60-69 8 01:14:28 05:31 10.88
131 1029 CAMMAERT CHRISTELLE CAP'TRAIL&FUN F40-49 7 01:14:29 05:31 10.88
132 521 VANDERSTRAETEN JOHAN JTP BLANCS GILETS H40-49 38 01:14:32 05:31 10.87
133 450 MACKONIENE INGA - F40-49 8 01:14:38 05:32 10.86
134 45 KONTOLEON ARYS J.E.T TUBIZE H50-59 33 01:14:53 05:33 10.82
135 124 VAN BAMIS CLAUDE - H60-69 9 01:14:55 05:33 10.81
136 757 COTTIN DENIS RUN4VILLERS H50-59 34 01:15:11 05:34 10.78
137 306 CAISE CARINE RUN4VILLERS/COACHING F50-59 4 01:15:14 05:34 10.77
138 131 CLAIRBOIS LAURENT JE COURS A INCOURT H50-59 35 01:15:38 05:36 10.71
139 321 DEMEY KEVIN FURALOPERS H40-49 39 01:16:17 05:39 10.62
140 1070 STUMPF YANN - H30-39 26 01:16:47 05:41 10.55
141 1071 DEWEER DELPHINE - F30-39 3 01:16:50 05:41 10.55
142 626 WILLIAMS PAUL RUNNIN'GREZ H40-49 40 01:16:56 05:42 10.53
143 728 BILLEN PIERRE - H50-59 36 01:17:01 05:42 10.52
144 232 JANSSENS MICHELE JCPMF GENAPPE F50-59 5 01:17:06 05:43 10.51
145 835 LEMPEREUR JEAN-LUC KURISTO H60-69 10 01:17:10 05:43 10.50
146 1120 BRASSEUR PAUL SPTW H40-49 41 01:17:11 05:43 10.50
147 433 BRAMS HUGUES JAMES H50-59 37 01:17:18 05:43 10.48
148 1011 LAMBERT ANTOINE JCPMF MSG H30-39 27 01:17:32 05:45 10.45
149 779 MARCHAND AMAURY - H30-39 28 01:17:33 05:45 10.45
150 239 BERCKMANS GILLES RIWA H40-49 42 01:17:45 05:45 10.42
151 657 VANHALLE FRANCOIS-XAVIER RUN4VILLERS H40-49 43 01:17:48 05:46 10.41
152 647 NOEL CHRISTOPHE - H50-59 38 01:17:58 05:46 10.39
153 162 MATHIEU CELINE - F40-49 9 01:17:58 05:46 10.39
154 748 DAVID DIDIER CERCLE BRUGGE H50-59 39 01:18:03 05:47 10.38
155 913 BIDAINE LUC WPRC H60-69 11 01:18:11 05:47 10.36
156 180 TOURNAY JEAN-JACQUES JE COURS A INCOURT H50-59 40 01:18:11 05:47 10.36
157 1082 'S JONGERS KURT HULS H50-59 41 01:18:27 05:49 10.33
158 3676 JONCKERS PITCH RUN TOGETHER CHASTRE H60-69 12 01:18:34 05:49 10.31
159 500 CROQUET MICHEL - H30-39 29 01:18:37 05:49 10.31
160 1049 DE CLERCK YVES JE COURS A INCOURT H50-59 42 01:18:40 05:50 10.30
161 672 CHABEAU VINCIANE ANTILOB F60-69 1 01:18:40 05:50 10.30
162 584 BACHMANN MARC RUNNIN'GREZ H60-69 13 01:18:45 05:50 10.29
163 322 BEKEN RIKA FURALOPERS F40-49 10 01:18:51 05:50 10.28
164 1010 DUCHENE JEAN-PIERRE JC RONVAU H60-69 14 01:18:57 05:51 10.26
165 348 LAURENT LUC JTP BLANC GILLET H50-59 43 01:18:59 05:51 10.26
166 995 PIERARD NATHALIE - F40-49 11 01:19:02 05:51 10.25
167 206 DUBOIS SANDRINE - F50-59 6 01:19:12 05:52 10.23
168 1109 PERZYNA LODIA JAMES F40-49 12 01:19:14 05:52 10.23
169 184 VANPEE ALAIN JE COURS A INCOURT 1 H70 & + 1 01:19:26 05:53 10.20
170 305 DUBREUCQ STEPHANE JTP BLANCS GILET H50-59 44 01:19:26 05:53 10.20
171 866 SALIEZ JEAN-MARC - H40-49 44 01:19:30 05:53 10.19
172 476 FALLIER STEPHANE TEAM MAHIA H40-49 45 01:19:33 05:53 10.18
173 637 BERREWAERTS FLORENCE - F30-39 4 01:19:53 05:55 10.14
174 969 DEFRAENE PATRICK ANTILOB H50-59 45 01:19:54 05:55 10.14
175 1018 DEFRAENE PAULINE ANTILOB F20-29 3 01:19:54 05:55 10.14
176 673 LIBERT DANIEL ANTILOB H50-59 46 01:20:02 05:56 10.12
177 285 TIGNON MARYLENE NAC F50-59 7 01:20:06 05:56 10.12
178 883 WILLAERT JULIE - F30-39 5 01:20:11 05:56 10.10
179 955 GALVEZ RUIZ MICHAEL - H40-49 46 01:20:24 05:57 10.08
180 966 HOYOIS MARC - H50-59 47 01:20:25 05:57 10.08
181 804 DEGROOTE NICOLAAS NAC H40-49 47 01:20:30 05:58 10.06
182 168 NOEL MARIE-ANNE JE COURS A INCOURT F50-59 8 01:20:41 05:58 10.04
183 3677 DECELLE MARIE_JUSTINE RUN TOGETHER CHASTRE F30-39 6 01:20:54 05:59 10.02
184 237 GROSSEN YVES TENDONS DETENDUS H70 & + 2 01:21:16 06:01 9.97
185 656 TIELEMANS PHILIPPE RUN4VILLERS H60-69 15 01:21:23 06:02 9.96
186 1015 SOMMEREYNS PHILIPPE JC RONVAU H50-59 48 01:21:27 06:02 9.95
187 1001 VANWICHELEN PHILIPPE JAMES H50-59 49 01:21:28 06:02 9.95
188 1014 HOUBART AGNES JC RONVAU F50-59 9 01:21:29 06:02 9.94
189 83 JACQUES MYRIAM CEPAL F60-69 2 01:21:30 06:02 9.94
190 73 DENEVE PIERRE CEPAL H60-69 16 01:21:31 06:02 9.94
191 1104 VROMMAN VALERIE NEANT F40-49 13 01:21:42 06:03 9.92
192 238 GROSSEN ROL TENDONS DETENDUS F70 & + 1 01:21:46 06:03 9.91
193 316 REUSS BENOIT TENDONS DETENDUS H60-69 17 01:21:46 06:03 9.91
194 537 FEYS MAURICE RUNNER CHASTRE H60-69 18 01:21:48 06:03 9.90
195 201 DECAMP MARTINE JAMES F60-69 3 01:21:48 06:03 9.90
196 449 VAN BELLEGHEM ALAIN RUN TOGETHER CHASTRE H60-69 19 01:21:52 06:04 9.90
197 936 STIENSMA ERIC WPRC H60-69 20 01:22:03 06:05 9.87
198 831 LECERF JEAN-LUC JOGGANS H60-69 21 01:22:11 06:05 9.86
199 1031 PUTMAN STEVE NAC H30-39 30 01:22:12 06:05 9.86
200 1026 CASIER LAURENCE - F30-39 7 01:22:13 06:05 9.85
201 3566 PIERREUX STEPHANE JCPMF GENAPPE H40-49 48 01:22:17 06:06 9.85
202 233 BRAHAM JEAN JAMES H70 & + 3 01:22:18 06:06 9.84
203 1122 GOBBERS ERIC JCPMF GENAPPE H50-59 50 01:22:21 06:06 9.84
204 122 ROOSEN FABIENNE - F40-49 14 01:22:24 06:06 9.83
205 731 BARBIER INGRID GSK BB FUNCLUB F40-49 15 01:22:35 06:07 9.81
206 1050 TASSONE ANTONIO GIORGIO - H40-49 49 01:22:57 06:09 9.77
207 3567 CALDERS RUDY - H50-59 51 01:23:13 06:10 9.74
208 1006 AERTS CATHLYNE - F50-59 10 01:23:19 06:10 9.72
209 282 DEWAEL PHILIPPE JAMES H70 & + 4 01:23:24 06:11 9.71
210 3558 DEPRE FANNY - F30-39 8 01:23:25 06:11 9.71
211 1017 CATOUL CAROLINE JCPMF F40-49 16 01:23:27 06:11 9.71
212 631 ALAIME AURELIE - F40-49 17 01:23:34 06:11 9.70
213 204 HENNUY ODILE JAMES F50-59 11 01:23:39 06:12 9.69
214 588 DE COOMAN ALAIN RUNNIN’GREZ H50-59 52 01:23:39 06:12 9.69
215 280 LUYTEN FABIENNE JAMES F50-59 12 01:23:41 06:12 9.68
216 1088 BLOMME QUENTIN CIAO ITALIA H20-29 14 01:24:02 06:13 9.64
217 869 CAUDRON NOEMIE NAC F15-19 1 01:24:08 06:14 9.63
218 870 CAUDRON BENOIT NAC H50-59 53 01:24:09 06:14 9.63
219 311 MICHOT MIKE - H40-49 50 01:24:57 06:17 9.54
220 453 PAULY GENE RUN TOGETHER CHASTRE F60-69 4 01:24:58 06:18 9.54
221 760 LEPINE JEAN-LOUIS JAMES H50-59 54 01:24:59 06:18 9.53
222 188 COOLS CHRISTIAN JAMES H60-69 22 01:25:03 06:18 9.53
223 480 COSTERMANS VIRGINIE - F40-49 18 01:25:07 06:18 9.52
224 422 RIZZERIO LAURA JAMES F60-69 5 01:25:20 06:19 9.49
225 224 DEJONGHE JEAN-PAUL JAMES H70 & + 5 01:25:26 06:20 9.48
226 1123 DUPLAT FRANÇOISE JAMES F40-49 19 01:25:30 06:20 9.48
227 56 GUILMAIN BENOIT - H40-49 51 01:25:36 06:20 9.47
228 219 DERMIENS-CLARYS ANGELIQUE JCPMF MSG F50-59 13 01:25:42 06:21 9.45
229 1130 VOLPI MARCEL - H50-59 55 01:25:44 06:21 9.45
230 350 PASO BERENGERE JCPMF MSG F30-39 9 01:25:45 06:21 9.45
231 1027 WILLIOT CHANTAL JAMES F30-39 10 01:25:46 06:21 9.45
232 220 LIESSE JACQUELINE JAMES F70 & + 2 01:25:47 06:21 9.44
233 478 DE MUNCK VERONIQUE NAC F60-69 6 01:25:48 06:21 9.44
234 1085 BELPAIRE JULIE RUNNING GREZ F20-29 4 01:25:48 06:21 9.44
235 1080 DELANDE CECILE RUNNING GREZ F40-49 20 01:25:51 06:21 9.44
236 1025 DAIX MEGAN JCPMF GENAPPE F30-39 11 01:26:07 06:23 9.41
237 1083 VAN BELLE ANNE RUN TOGETHER CHASTRE F50-59 14 01:26:25 06:24 9.38
238 3675 MELIS PATRICIA - F50-59 15 01:26:27 06:24 9.37
239 312 VANDENSCHRICK GREGORY - H40-49 52 01:26:51 06:26 9.33
240 4 HERION ERIC JTP BLANCS GILETS H40-49 53 01:26:54 06:26 9.32
241 539 BREYNE CHANTAL NAC F50-59 16 01:26:58 06:26 9.32
242 235 DE LEENER JEAN-MARIE NAC H60-69 23 01:27:08 06:27 9.30
243 874 DA SILVA ISABEL - F40-49 21 01:27:10 06:27 9.30
244 796 VANDERLIN CHARLENE NAC F20-29 5 01:27:13 06:28 9.29
245 303 WERRES MARC - H50-59 56 01:27:26 06:28 9.27
246 816 RONDOU PHILIPPE NAC H50-59 57 01:27:29 06:29 9.26
247 980 STILLEMANS GEORGES - H50-59 58 01:27:31 06:29 9.26
248 2 HOURMAN GWENDOLINE ENJAMBEE F50-59 17 01:27:35 06:29 9.25
249 1094 BANNER CAROL JCPMF MSG F50-59 18 01:27:50 06:30 9.22
250 960 DECAMPS ERIC ESM H50-59 59 01:27:52 06:30 9.22
251 801 GELIN GREET ROBA F50-59 19 01:27:59 06:31 9.21
252 125 ANDRIES VIRGINIE JE COURS A INCOURT F50-59 20 01:28:06 06:31 9.20
253 749 NAMUROIS MARGAUX JCPMF MSG F30-39 12 01:28:06 06:31 9.20
254 147 GOFFOY LARRY JE COURS A INCOURT H40-49 54 01:28:07 06:32 9.19
255 3679 PLUMET WILLIAM 3T H70 & + 6 01:28:08 06:32 9.19
256 293 LAMOTTE JONATHAN USBW H40-49 55 01:28:13 06:32 9.18
257 959 DE WULF LUC ESM H60-69 24 01:28:14 06:32 9.18
258 802 NGUYEN EMILIE - F30-39 13 01:28:27 06:33 9.16
259 968 KEIMEUL CATHERINE ROS F50-59 21 01:28:41 06:34 9.14
260 1089 HOUTART AURORE RUN TOGETHER F20-29 6 01:28:46 06:34 9.13
261 53 COOSEMANS ISABELLE J.E.T TUBIZE F40-49 22 01:29:10 06:36 9.09
262 1090 FUMIERE AURORE RUN TOGETHER CHASTRE F40-49 23 01:29:12 06:36 9.08
263 307 RADDOUX HUGO HWJ H60-69 25 01:29:29 06:38 9.05
264 362 HEYMANS VALERIE JAMES F50-59 22 01:29:42 06:39 9.03
265 203 DECOURTIT FREDERIC JAMES H50-59 60 01:29:43 06:39 9.03
266 437 CHARLIER VERONIQUE JAMES F50-59 23 01:29:59 06:40 9.00
267 229 BURTON THUYEN NAC F40-49 24 01:30:55 06:44 8.91
268 733 DUPUIS LAURENCE JTP F50-59 24 01:31:07 06:45 8.89
269 646 LACROIX FLORENCE - F40-49 25 01:31:10 06:45 8.89
270 226 DE MOOR RUDI - H60-69 26 01:31:10 06:45 8.89
271 1343 MARGOT JAN - H60-69 27 01:31:11 06:45 8.89
272 352 HECQ ANNE-FRANCOISE NAC F50-59 25 01:31:12 06:45 8.88
273 160 MARCHAL SOPHIE JE COURS A INCOURT F40-49 26 01:31:25 06:46 8.86
274 3 PIQUARD BEN JAMES H50-59 61 01:31:27 06:46 8.86
275 635 GRANDMONT ANITA JTP BLANCS GILETS F50-59 26 01:31:55 06:48 8.81
276 1112 MICLOTTE JESSICA - F30-39 14 01:32:15 06:50 8.78
277 1111 DANTINNE NICOLAS - H30-39 31 01:32:16 06:50 8.78
278 181 VAN LAER YVES JE COURS A INCOURT H50-59 62 01:32:37 06:52 8.75
279 142 FEYAERTS MARC JE COURS A INCOURT H60-69 28 01:32:40 06:52 8.74
280 503 COLLIN CINDY NAC F20-29 7 01:32:55 06:53 8.72
281 458 DE CLERCQ MIKAEL - H30-39 32 01:32:57 06:53 8.72
282 466 SAX LAURIE NAC F30-39 15 01:32:58 06:53 8.72
283 964 DEBEUF STEPHANE CSF H50-59 63 01:33:05 06:54 8.70
284 477 PEREMANS GAELLE TEAM MAHIA F40-49 27 01:33:10 06:54 8.70
285 583 DE RIDDER SANDRINE JCPMF MT ST GUIBERT F30-39 16 01:33:14 06:54 8.69
286 277 LEVECQ MATHIAS - H15-19 3 01:33:28 06:55 8.67
287 472 PIRAUX DOMNIQUE JAMES H60-69 29 01:33:29 06:55 8.67
288 339 BINARD CAROLINE JAMES F40-49 28 01:33:31 06:56 8.66
289 519 DELBART CHRISTELLE NAC F40-49 29 01:33:34 06:56 8.66
290 459 GOCHEL MELYSSA BOULEDICORNE F30-39 17 01:33:45 06:57 8.64
291 441 FILLEE NATHALIE RUN TOGETHER CHASTRE F50-59 27 01:33:56 06:57 8.63
292 956 DIAZ RODRIGUEZ SANDRA - F40-49 30 01:34:00 06:58 8.62
293 591 DE WINTER HILDE RUNNING GREZ F50-59 28 01:34:08 06:58 8.61
294 989 COURTIN BRUNO RIWA H40-49 56 01:34:12 06:59 8.60
295 632 ABRASSART FLORENTINE RUN TOGETHER CHASTRE F20-29 8 01:34:30 07:00 8.57
296 810 STOURME MURIEL NAC F30-39 18 01:34:47 07:01 8.55
297 278 ROZENBLAT STEPHANE NAC. RCABW H50-59 64 01:34:47 07:01 8.55
298 11 GROGNET SONIA JAMES F50-59 29 01:35:03 07:02 8.52
299 434 HOCK FRANCOISE JAMES F50-59 30 01:35:05 07:02 8.52
300 330 VELGHE CLAUDE NEANT H50-59 65 01:35:29 07:04 8.49
301 354 VETS AGNES NAC F60-69 7 01:35:34 07:05 8.48
302 432 LOCUS DANIELLE RUN TOGETHER CHASTRE F50-59 31 01:36:02 07:07 8.44
303 1051 PIERRE VALERIE - F40-49 31 01:36:12 07:07 8.42
304 945 COUTELLIER MARIE LOUISE ESM F60-69 8 01:36:42 07:10 8.38
305 3552 LARMUSEAU STEFANIE - F40-49 32 01:36:50 07:10 8.37
306 3573 DANDOY AURELIE RIWA F30-39 19 01:36:58 07:11 8.36
307 3579 BORSUS ELISABETH RIWA F30-39 20 01:36:59 07:11 8.35
308 183 VANKEERBERGHEN JACQUES JE COURS A INCOURT H50-59 66 01:37:19 07:12 8.33
309 3553 SOKOLOVSKA IVANA - F50-59 32 01:37:29 07:13 8.31
310 499 MAGIS CHANTAL - F50-59 33 01:38:44 07:19 8.21
311 464 MICHEL MURIEL NAC F50-59 34 01:38:54 07:19 8.19
312 338 DUVIVIER CHRISTINE JAMES F50-59 35 01:39:18 07:21 8.16
313 302 POURTOIS CHRISTIAN - H50-59 67 01:39:35 07:22 8.14
314 205 COLASSE DIDIER - H50-59 68 01:39:36 07:23 8.13
315 473 HERMANT LOOSFELT MARIE-CLAIRE JAMES F60-69 9 01:39:46 07:23 8.12
316 486 BODEUX CLAIRE JAMES F50-59 36 01:40:08 07:25 8.09
317 919 DE BOE ANNE WPRC F60-69 10 01:40:11 07:25 8.09
318 358 BOUSSAKLATAN NORDEN JCPMFG H50-59 69 01:40:13 07:25 8.08
319 357 SADDOUKI CHAHRAZADE JCPMFG F40-49 33 01:40:20 07:26 8.08
320 940 CONTE PAOLO - H50-59 70 01:40:24 07:26 8.07
321 534 LEMAL BENEDICTE JAMES F40-49 34 01:40:37 07:27 8.05
322 1135 VREVEN LAURENT JAMES H50-59 71 01:40:38 07:27 8.05
323 439 DEHAYE ANNE JAMES F50-59 37 01:40:38 07:27 8.05
324 1134 FRENNET NATHALIE JAMES F40-49 35 01:40:39 07:27 8.05
325 438 DEPREZ ALAIN JAMES H50-59 72 01:40:39 07:27 8.05
326 939 BOHY VALERIE JCPMF GENAPPE F40-49 36 01:40:43 07:28 8.04
327 10 ROMERS ERIC JAMES H50-59 73 01:40:54 07:28 8.03
328 641 STEVENS DOMINIQUE JAMES F50-59 38 01:41:12 07:30 8.01
329 3562 VAN DEN HEEDE PATRICK - H60-69 30 01:41:13 07:30 8.00
330 9 DECOCQ FRANCOISE JAMES F50-59 39 01:41:13 07:30 8.00
331 931 NOVAK BERENGERE WPRC F40-49 37 01:41:20 07:30 8.00
332 159 LOMMERS ANNE JE COURS A INCOURT F50-59 40 01:41:38 07:32 7.97
333 115 BAIKRICH GUY RCB H70 & + 7 01:41:40 07:32 7.97
334 236 MAUS MADELEINE NAC F60-69 11 01:41:40 07:32 7.97
335 126 BARRETTO REBECA JE COURS A INCOURT F40-49 38 01:41:41 07:32 7.97
336 1061 VAN HAUWAERT ANNE LES GAZELLES DU DESE F50-59 41 01:41:41 07:32 7.97
337 1058 FALLON VALERIE LES GAZELLES DU DESE F50-59 42 01:41:42 07:32 7.97
338 692 HOMBRAIN JEAN-MARC RUN4VILLERS H50-59 74 01:41:55 07:33 7.95
339 3561 LIETAR CELINE - F30-39 21 01:42:07 07:34 7.93
340 268 MIESSE DANY - H60-69 31 01:42:31 07:36 7.90
341 173 PIRCAK VERONIQUE J COURS A INCOURT F40-49 39 01:42:42 07:36 7.89
342 271 SYMONS PETRO - H60-69 32 01:42:53 07:37 7.88
343 836 MEURISSE BERNADETTE KURISTO F60-69 12 01:43:05 07:38 7.86
344 349 LALLEMAND BERNADETTE JTP BLANC GILLET F50-59 43 01:43:36 07:40 7.82
345 703 SEGHERS ISABELLE JTPBLANCGILET F50-59 44 01:43:36 07:40 7.82
346 3673 LEGROS SYLVIE JE COURS A INCOURT F40-49 40 01:43:38 07:40 7.82
347 1057 XX X - XXX   01:43:39 07:41 7.82
348 1059 DEWALS ISABELLE LES GAZELLES DU DESE F40-49 41 01:43:41 07:41 7.81
349 937 VANSTEENKISTE NADINE WPRC F50-59 45 01:44:30 07:44 7.75
350 1008 CARDON BENJAMIN - H50-59 75 01:44:32 07:44 7.75
351 879 SKHIR NOUFISSA JTP BLANCS GILETS F50-59 46 01:44:33 07:45 7.75
352 1105 FLAMAND VALERIE AXA RUNNING TEAM F50-59 47 01:46:07 07:52 7.64
353 585 CALLENS VALERIE RUNNIN'GREZ F50-59 48 01:46:41 07:54 7.59
354 341 LEFEBVRE MARINE - F30-39 22 01:48:42 08:03 7.45
355 276 ISABELLE GAIGNAGE ISABELLE NAC. RCABW F50-59 49 01:49:03 08:05 7.43
356 170 NUYTTEN STEPHANIE INCOURT F40-49 42 01:49:54 08:08 7.37
357 134 DEMORTIER STEPHANIE JE COURS A INCOURT F40-49 43 01:49:55 08:08 7.37
358 151 HENRARD ALINE JCAI F40-49 44 01:49:56 08:08 7.37
359 1102 USEO MARIE-NOELLE - F50-59 50 01:50:26 08:11 7.34
360 8 ALBERT TRISTAN JTP BLANCS GILETS H15-19 4 01:50:32 08:11 7.33
361 6 VANDEREYD ERIC JTP BLANCS GILETS H60-69 33 01:51:41 08:16 7.25
362 258 VANDEN BORRE EMILE RIWA H70 & + 8 01:53:33 08:25 7.14
363 977 GALASTRO FORTUNATA LES BLANCS GILETS F50-59 51 01:54:29 08:29 7.08
364 270 SEGGIO PINO - H70 & + 9 01:54:39 08:29 7.07
365 664 DUMONT BRIGITTE BLANCS GILETS F60-69 13 01:54:53 08:30 7.05
366 3578 DEMILLECAMPS CLARA - XXX   01:57:00 08:40 6.92
367 763 SEGHERS RITA - F70 & + 3 01:57:17 08:41 6.91
368 22 DENIS MARCEL - H70 & + 10 01:58:01 08:44 6.87
369 872 BOLEN MARIE - F20-29 9 01:58:15 08:45 6.85
370 149 GOUDMAEKER CLAUDE JE COURS A INCOURT H60-69 34 01:58:16 08:45 6.85
371 164 MINOT SYLVIANNE JE COURS A INCOURT F50-59 52 01:58:17 08:46 6.85
372 890 ROMANOWICZ AGNIESZKA JAMES F40-49 45 01:58:49 08:48 6.82
373 3577 DECASTIAU MURIEL - F40-49 46 02:00:00 08:53 6.75
374 3576 DEMILLECAMPS EMMANUEL - F50-59 53 02:02:00 09:02 6.64
375 3555 PRADE MARIANNE - F40-49 47 02:02:59 09:06 6.59
376 3554 WARNIER MARIE - F40-49 48 02:03:01 09:07 6.59
377 813 MORTIER FREDERIC - H40-49 57 02:05:02 09:16 6.48
378 531 PIRSON PATRICE RRT CHATELET H60-69 35 02:05:26 09:17 6.46
379 593 DEBUSSCHER ANNE RUNNIN'GREZ F50-59 54 02:09:21 09:35 6.26
380 670 VANACKERE ERIC ANTILOB H50-59 76 02:54:04 12:53 4.65
381 671 GRAVY ISABELLE ANTILOB F60-69 14 02:54:06 12:54 4.65
                 
Nos dernières videos
-->